sensor_id;sensor_type;location;lat;lon;timestamp;pressure;altitude;pressure_sealevel;temperature;humidity
64253;BME280;50592;52.958;-7.470;2022-09-13T00:02:03;100306.28;;;11.06;100.00
64253;BME280;50592;52.958;-7.470;2022-09-13T00:04:29;100307.28;;;11.05;100.00
64253;BME280;50592;52.958;-7.470;2022-09-13T00:06:55;100305.59;;;11.04;100.00
64253;BME280;50592;52.958;-7.470;2022-09-13T00:09:21;100308.25;;;11.04;100.00
64253;BME280;50592;52.958;-7.470;2022-09-13T00:11:47;100310.91;;;11.04;100.00
64253;BME280;50592;52.958;-7.470;2022-09-13T00:14:14;100304.09;;;11.01;100.00
64253;BME280;50592;52.958;-7.470;2022-09-13T00:16:40;100303.72;;;10.96;100.00
64253;BME280;50592;52.958;-7.470;2022-09-13T00:19:07;100308.63;;;10.91;100.00
64253;BME280;50592;52.958;-7.470;2022-09-13T00:21:34;100296.69;;;10.87;100.00
64253;BME280;50592;52.958;-7.470;2022-09-13T00:24:02;100297.97;;;10.83;100.00
64253;BME280;50592;52.958;-7.470;2022-09-13T00:26:45;100294.09;;;10.77;100.00
64253;BME280;50592;52.958;-7.470;2022-09-13T00:29:13;100293.97;;;10.78;100.00
64253;BME280;50592;52.958;-7.470;2022-09-13T00:31:39;100292.06;;;10.71;100.00
64253;BME280;50592;52.958;-7.470;2022-09-13T00:34:11;100290.84;;;10.65;100.00
64253;BME280;50592;52.958;-7.470;2022-09-13T00:36:43;100292.50;;;10.66;100.00
64253;BME280;50592;52.958;-7.470;2022-09-13T00:39:10;100291.53;;;10.67;100.00
64253;BME280;50592;52.958;-7.470;2022-09-13T00:41:36;100295.16;;;10.66;100.00
64253;BME280;50592;52.958;-7.470;2022-09-13T00:44:03;100298.25;;;10.61;100.00
64253;BME280;50592;52.958;-7.470;2022-09-13T00:46:38;100297.41;;;10.61;100.00
64253;BME280;50592;52.958;-7.470;2022-09-13T00:49:26;100294.13;;;10.49;100.00
64253;BME280;50592;52.958;-7.470;2022-09-13T00:51:58;100310.53;;;10.52;100.00
64253;BME280;50592;52.958;-7.470;2022-09-13T00:54:49;100304.72;;;10.49;100.00
64253;BME280;50592;52.958;-7.470;2022-09-13T00:57:18;100306.78;;;10.45;100.00
64253;BME280;50592;52.958;-7.470;2022-09-13T00:59:53;100303.75;;;10.40;100.00
64253;BME280;50592;52.958;-7.470;2022-09-13T01:02:26;100317.63;;;10.42;100.00
64253;BME280;50592;52.958;-7.470;2022-09-13T01:04:53;100313.78;;;10.46;100.00
64253;BME280;50592;52.958;-7.470;2022-09-13T01:07:26;100313.78;;;10.46;100.00
64253;BME280;50592;52.958;-7.470;2022-09-13T01:09:55;100315.44;;;10.47;100.00
64253;BME280;50592;52.958;-7.470;2022-09-13T01:12:56;100320.44;;;10.40;100.00
64253;BME280;50592;52.958;-7.470;2022-09-13T01:15:32;100322.78;;;10.43;100.00
64253;BME280;50592;52.958;-7.470;2022-09-13T01:18:33;100317.38;;;10.35;100.00
64253;BME280;50592;52.958;-7.470;2022-09-13T01:21:30;100320.44;;;10.40;100.00
64253;BME280;50592;52.958;-7.470;2022-09-13T01:25:18;100329.50;;;10.38;100.00
64253;BME280;50592;52.958;-7.470;2022-09-13T01:30:19;100319.06;;;10.36;100.00
64253;BME280;50592;52.958;-7.470;2022-09-13T01:33:08;100321.56;;;10.38;100.00
64253;BME280;50592;52.958;-7.470;2022-09-13T01:35:46;100319.88;;;10.37;100.00
64253;BME280;50592;52.958;-7.470;2022-09-13T01:43:55;100317.91;;;10.11;100.00
64253;BME280;50592;52.958;-7.470;2022-09-13T01:47:08;100323.63;;;10.06;100.00
64253;BME280;50592;52.958;-7.470;2022-09-13T01:52:36;100320.28;;;10.14;100.00
64253;BME280;50592;52.958;-7.470;2022-09-13T01:58:40;100324.34;;;9.98;100.00
64253;BME280;50592;52.958;-7.470;2022-09-13T02:01:07;100323.53;;;9.88;100.00
64253;BME280;50592;52.958;-7.470;2022-09-13T02:03:57;100318.25;;;9.78;100.00
64253;BME280;50592;52.958;-7.470;2022-09-13T02:06:29;100331.88;;;9.73;100.00
64253;BME280;50592;52.958;-7.470;2022-09-13T02:08:59;100327.75;;;9.71;100.00
64253;BME280;50592;52.958;-7.470;2022-09-13T02:11:27;100326.66;;;9.63;100.00
64253;BME280;50592;52.958;-7.470;2022-09-13T02:13:58;100333.59;;;9.64;100.00
64253;BME280;50592;52.958;-7.470;2022-09-13T02:16:39;100319.84;;;9.61;100.00
64253;BME280;50592;52.958;-7.470;2022-09-13T02:19:16;100329.44;;;9.62;100.00
64253;BME280;50592;52.958;-7.470;2022-09-13T02:21:47;100333.31;;;9.58;100.00
64253;BME280;50592;52.958;-7.470;2022-09-13T02:24:27;100319.69;;;9.52;100.00
64253;BME280;50592;52.958;-7.470;2022-09-13T02:26:55;100325.81;;;9.53;100.00
64253;BME280;50592;52.958;-7.470;2022-09-13T02:29:23;100320.53;;;9.53;100.00
64253;BME280;50592;52.958;-7.470;2022-09-13T02:32:08;100320.13;;;9.48;100.00
64253;BME280;50592;52.958;-7.470;2022-09-13T02:34:39;100310.69;;;9.45;100.00
64253;BME280;50592;52.958;-7.470;2022-09-13T02:37:08;100317.09;;;9.42;100.00
64253;BME280;50592;52.958;-7.470;2022-09-13T02:39:37;100323.19;;;9.43;100.00
64253;BME280;50592;52.958;-7.470;2022-09-13T02:42:18;100324.31;;;9.50;100.00
64253;BME280;50592;52.958;-7.470;2022-09-13T02:44:47;100321.38;;;9.53;100.00
64253;BME280;50592;52.958;-7.470;2022-09-13T02:50:23;100314.56;;;9.51;100.00
64253;BME280;50592;52.958;-7.470;2022-09-13T02:53:10;100313.47;;;9.53;100.00
64253;BME280;50592;52.958;-7.470;2022-09-13T02:55:43;100315.81;;;9.57;100.00
64253;BME280;50592;52.958;-7.470;2022-09-13T03:01:14;100311.78;;;9.52;100.00
64253;BME280;50592;52.958;-7.470;2022-09-13T03:03:40;100315.97;;;9.45;100.00
64253;BME280;50592;52.958;-7.470;2022-09-13T03:06:06;100308.91;;;9.36;100.00
64253;BME280;50592;52.958;-7.470;2022-09-13T03:08:33;100311.53;;;9.36;100.00
64253;BME280;50592;52.958;-7.470;2022-09-13T03:16:17;100302.53;;;9.28;100.00
64253;BME280;50592;52.958;-7.470;2022-09-13T03:21:38;100291.81;;;9.20;100.00
64253;BME280;50592;52.958;-7.470;2022-09-13T03:38:11;100280.44;;;9.20;100.00
64253;BME280;50592;52.958;-7.470;2022-09-13T03:41:35;100282.66;;;9.24;100.00
64253;BME280;50592;52.958;-7.470;2022-09-13T03:44:02;100285.28;;;9.24;100.00
64253;BME280;50592;52.958;-7.470;2022-09-13T03:46:45;100289.06;;;9.32;100.00
64253;BME280;50592;52.958;-7.470;2022-09-13T03:49:14;100292.91;;;9.37;100.00
64253;BME280;50592;52.958;-7.470;2022-09-13T03:51:46;100307.91;;;9.47;100.00
64253;BME280;50592;52.958;-7.470;2022-09-13T03:54:42;100299.72;;;9.50;100.00
64253;BME280;50592;52.958;-7.470;2022-09-13T03:57:17;100297.63;;;9.53;100.00
64253;BME280;50592;52.958;-7.470;2022-09-13T03:59:53;100299.28;;;9.54;100.00
64253;BME280;50592;52.958;-7.470;2022-09-13T04:02:22;100304.00;;;9.61;100.00
64253;BME280;50592;52.958;-7.470;2022-09-13T04:04:48;100300.41;;;9.62;100.00
64253;BME280;50592;52.958;-7.470;2022-09-13T04:07:17;100298.88;;;9.59;100.00
64253;BME280;50592;52.958;-7.470;2022-09-13T04:09:43;100298.72;;;9.61;100.00
64253;BME280;50592;52.958;-7.470;2022-09-13T04:12:11;100288.03;;;9.62;100.00
64253;BME280;50592;52.958;-7.470;2022-09-13T04:14:39;100285.53;;;9.61;100.00
64253;BME280;50592;52.958;-7.470;2022-09-13T04:17:06;100274.69;;;9.54;100.00
64253;BME280;50592;52.958;-7.470;2022-09-13T04:19:32;100267.47;;;9.56;100.00
64253;BME280;50592;52.958;-7.470;2022-09-13T04:21:58;100272.47;;;9.59;100.00
64253;BME280;50592;52.958;-7.470;2022-09-13T04:24:25;100260.13;;;9.60;100.00
64253;BME280;50592;52.958;-7.470;2022-09-13T04:26:52;100263.59;;;9.60;100.00
64253;BME280;50592;52.958;-7.470;2022-09-13T04:29:19;100266.75;;;9.64;100.00
64253;BME280;50592;52.958;-7.470;2022-09-13T04:31:46;100261.50;;;9.64;100.00
64253;BME280;50592;52.958;-7.470;2022-09-13T04:34:12;100263.16;;;9.65;100.00
64253;BME280;50592;52.958;-7.470;2022-09-13T04:36:39;100263.84;;;9.67;100.00
64253;BME280;50592;52.958;-7.470;2022-09-13T04:39:05;100260.91;;;9.70;100.00
64253;BME280;50592;52.958;-7.470;2022-09-13T04:41:31;100263.28;;;9.73;100.00
64253;BME280;50592;52.958;-7.470;2022-09-13T04:44:00;100253.13;;;9.68;100.00
64253;BME280;50592;52.958;-7.470;2022-09-13T04:46:27;100246.91;;;9.70;100.00
64253;BME280;50592;52.958;-7.470;2022-09-13T04:48:53;100246.75;;;9.71;100.00
64253;BME280;50592;52.958;-7.470;2022-09-13T04:51:19;100246.84;;;9.79;100.00
64253;BME280;50592;52.958;-7.470;2022-09-13T04:53:51;100252.00;;;9.81;100.00
64253;BME280;50592;52.958;-7.470;2022-09-13T04:56:23;100250.44;;;9.88;100.00
64253;BME280;50592;52.958;-7.470;2022-09-13T04:58:50;100248.38;;;9.92;100.00
64253;BME280;50592;52.958;-7.470;2022-09-13T05:01:16;100248.06;;;9.95;100.00
64253;BME280;50592;52.958;-7.470;2022-09-13T05:03:42;100243.75;;;9.94;100.00
64253;BME280;50592;52.958;-7.470;2022-09-13T05:06:13;100254.03;;;9.97;100.00
64253;BME280;50592;52.958;-7.470;2022-09-13T05:08:43;100260.00;;;9.99;100.00
64253;BME280;50592;52.958;-7.470;2022-09-13T05:11:09;100252.22;;;9.98;100.00
64253;BME280;50592;52.958;-7.470;2022-09-13T05:13:38;100247.09;;;9.96;100.00
64253;BME280;50592;52.958;-7.470;2022-09-13T05:16:05;100244.84;;;10.01;100.00
64253;BME280;50592;52.958;-7.470;2022-09-13T05:18:35;100259.56;;;10.04;100.00
64253;BME280;50592;52.958;-7.470;2022-09-13T05:21:02;100267.63;;;10.02;100.00
64253;BME280;50592;52.958;-7.470;2022-09-13T05:23:30;100251.94;;;10.01;100.00
64253;BME280;50592;52.958;-7.470;2022-09-13T05:26:01;100261.34;;;10.03;100.00
64253;BME280;50592;52.958;-7.470;2022-09-13T05:28:29;100262.50;;;10.01;100.00
64253;BME280;50592;52.958;-7.470;2022-09-13T05:33:25;100267.22;;;9.97;100.00
64253;BME280;50592;52.958;-7.470;2022-09-13T05:35:52;100259.88;;;9.91;100.00
64253;BME280;50592;52.958;-7.470;2022-09-13T05:38:18;100273.34;;;9.98;100.00
64253;BME280;50592;52.958;-7.470;2022-09-13T05:40:44;100264.06;;;9.93;100.00
64253;BME280;50592;52.958;-7.470;2022-09-13T05:43:11;100272.13;;;9.92;100.00
64253;BME280;50592;52.958;-7.470;2022-09-13T05:45:37;100262.16;;;9.86;100.00
64253;BME280;50592;52.958;-7.470;2022-09-13T05:48:03;100258.09;;;9.82;100.00
64253;BME280;50592;52.958;-7.470;2022-09-13T05:50:29;100259.75;;;9.83;100.00
64253;BME280;50592;52.958;-7.470;2022-09-13T05:52:55;100258.25;;;9.80;100.00
64253;BME280;50592;52.958;-7.470;2022-09-13T05:55:21;100269.50;;;9.82;100.00
64253;BME280;50592;52.958;-7.470;2022-09-13T05:57:48;100263.69;;;9.78;100.00
64253;BME280;50592;52.958;-7.470;2022-09-13T06:00:15;100266.59;;;9.75;100.00
64253;BME280;50592;52.958;-7.470;2022-09-13T06:02:44;100274.66;;;9.74;100.00
64253;BME280;50592;52.958;-7.470;2022-09-13T06:05:10;100265.91;;;9.73;100.00
64253;BME280;50592;52.958;-7.470;2022-09-13T06:07:39;100263.13;;;9.75;100.00
64253;BME280;50592;52.958;-7.470;2022-09-13T06:10:07;100258.56;;;9.67;100.00
64253;BME280;50592;52.958;-7.470;2022-09-13T06:12:51;100268.84;;;9.70;100.00
64253;BME280;50592;52.958;-7.470;2022-09-13T06:15:29;100276.47;;;9.73;100.00
64253;BME280;50592;52.958;-7.470;2022-09-13T06:17:55;100269.81;;;9.69;100.00
64253;BME280;50592;52.958;-7.470;2022-09-13T06:20:24;100266.47;;;9.67;100.00
64253;BME280;50592;52.958;-7.470;2022-09-13T06:22:56;100269.69;;;9.71;100.00
64253;BME280;50592;52.958;-7.470;2022-09-13T06:25:23;100284.50;;;9.82;100.00
64253;BME280;50592;52.958;-7.470;2022-09-13T06:27:49;100284.06;;;9.86;100.00
64253;BME280;50592;52.958;-7.470;2022-09-13T06:30:17;100279.34;;;9.90;100.00
64253;BME280;50592;52.958;-7.470;2022-09-13T06:32:46;100279.47;;;9.98;100.00
64253;BME280;50592;52.958;-7.470;2022-09-13T06:35:12;100272.56;;;9.87;100.00
64253;BME280;50592;52.958;-7.470;2022-09-13T06:37:38;100277.13;;;9.85;100.00
64253;BME280;50592;52.958;-7.470;2022-09-13T06:40:05;100279.91;;;9.93;100.00
64253;BME280;50592;52.958;-7.470;2022-09-13T06:42:35;100276.84;;;9.88;100.00
64253;BME280;50592;52.958;-7.470;2022-09-13T06:45:04;100273.66;;;9.85;100.00
64253;BME280;50592;52.958;-7.470;2022-09-13T06:47:31;100287.56;;;9.87;100.00
64253;BME280;50592;52.958;-7.470;2022-09-13T06:50:20;100282.69;;;9.92;100.00
64253;BME280;50592;52.958;-7.470;2022-09-13T06:52:46;100283.22;;;9.96;100.00
64253;BME280;50592;52.958;-7.470;2022-09-13T06:55:12;100286.94;;;10.03;100.00
64253;BME280;50592;52.958;-7.470;2022-09-13T06:57:38;100286.63;;;10.16;100.00
64253;BME280;50592;52.958;-7.470;2022-09-13T07:00:07;100292.41;;;10.29;100.00
64253;BME280;50592;52.958;-7.470;2022-09-13T07:02:34;100294.75;;;10.33;100.00
64253;BME280;50592;52.958;-7.470;2022-09-13T07:05:00;100283.19;;;10.34;100.00
64253;BME280;50592;52.958;-7.470;2022-09-13T07:07:26;100284.31;;;10.31;100.00
64253;BME280;50592;52.958;-7.470;2022-09-13T07:09:55;100289.59;;;10.31;100.00
64253;BME280;50592;52.958;-7.470;2022-09-13T07:12:25;100289.59;;;10.31;100.00
64253;BME280;50592;52.958;-7.470;2022-09-13T07:14:51;100287.81;;;10.32;100.00
64253;BME280;50592;52.958;-7.470;2022-09-13T07:17:18;100301.25;;;10.38;100.00
64253;BME280;50592;52.958;-7.470;2022-09-13T07:19:44;100299.00;;;10.43;100.00
64253;BME280;50592;52.958;-7.470;2022-09-13T07:22:09;100293.41;;;10.57;100.00
64253;BME280;50592;52.958;-7.470;2022-09-13T07:24:35;100288.81;;;10.59;100.00
64253;BME280;50592;52.958;-7.470;2022-09-13T07:27:01;100292.50;;;10.66;100.00
64253;BME280;50592;52.958;-7.470;2022-09-13T07:29:28;100287.75;;;10.70;100.00
64253;BME280;50592;52.958;-7.470;2022-09-13T07:31:54;100296.38;;;10.72;100.00
64253;BME280;50592;52.958;-7.470;2022-09-13T07:34:22;100297.28;;;10.81;100.00
64253;BME280;50592;52.958;-7.470;2022-09-13T07:36:49;100300.97;;;10.88;100.00
64253;BME280;50592;52.958;-7.470;2022-09-13T07:39:16;100303.31;;;10.91;100.00
64253;BME280;50592;52.958;-7.470;2022-09-13T07:41:42;100304.41;;;10.98;100.00
64253;BME280;50592;52.958;-7.470;2022-09-13T07:44:10;100298.13;;;10.99;100.00
64253;BME280;50592;52.958;-7.470;2022-09-13T07:46:37;100304.66;;;11.05;100.00
64253;BME280;50592;52.958;-7.470;2022-09-13T07:49:09;100307.50;;;11.12;100.00
64253;BME280;50592;52.958;-7.470;2022-09-13T07:51:37;100298.13;;;11.18;100.00
64253;BME280;50592;52.958;-7.470;2022-09-13T07:54:06;100312.09;;;11.28;100.00
64253;BME280;50592;52.958;-7.470;2022-09-13T07:56:36;100308.09;;;11.24;100.00
64253;BME280;50592;52.958;-7.470;2022-09-13T07:59:05;100312.41;;;11.25;100.00
64253;BME280;50592;52.958;-7.470;2022-09-13T08:01:36;100302.50;;;11.27;100.00
64253;BME280;50592;52.958;-7.470;2022-09-13T08:04:05;100310.69;;;11.34;100.00
64253;BME280;50592;52.958;-7.470;2022-09-13T08:06:33;100308.22;;;11.40;100.00
64253;BME280;50592;52.958;-7.470;2022-09-13T08:09:00;100305.97;;;11.46;100.00
64253;BME280;50592;52.958;-7.470;2022-09-13T08:11:29;100313.13;;;11.53;100.00
64253;BME280;50592;52.958;-7.470;2022-09-13T08:13:55;100307.22;;;11.60;100.00
64253;BME280;50592;52.958;-7.470;2022-09-13T08:16:23;100304.78;;;11.66;100.00
64253;BME280;50592;52.958;-7.470;2022-09-13T08:18:52;100290.72;;;11.66;100.00
64253;BME280;50592;52.958;-7.470;2022-09-13T08:21:18;100293.78;;;11.79;100.00
64253;BME280;50592;52.958;-7.470;2022-09-13T08:23:45;100295.81;;;11.86;100.00
64253;BME280;50592;52.958;-7.470;2022-09-13T08:26:14;100299.69;;;12.00;100.00
64253;BME280;50592;52.958;-7.470;2022-09-13T08:28:41;100297.41;;;12.05;100.00
64253;BME280;50592;52.958;-7.470;2022-09-13T08:31:15;100288.34;;;12.08;100.00
64253;BME280;50592;52.958;-7.470;2022-09-13T08:33:43;100292.69;;;12.17;100.00
64253;BME280;50592;52.958;-7.470;2022-09-13T08:36:10;100286.56;;;12.17;100.00
64253;BME280;50592;52.958;-7.470;2022-09-13T08:38:38;100284.94;;;12.24;100.00
64253;BME280;50592;52.958;-7.470;2022-09-13T08:44:02;100284.81;;;12.34;100.00
64253;BME280;50592;52.958;-7.470;2022-09-13T08:46:34;100287.66;;;12.40;100.00
64253;BME280;50592;52.958;-7.470;2022-09-13T08:49:10;100294.50;;;12.51;100.00
64253;BME280;50592;52.958;-7.470;2022-09-13T08:51:40;100286.03;;;12.48;100.00
64253;BME280;50592;52.958;-7.470;2022-09-13T08:54:14;100285.38;;;12.54;100.00
64253;BME280;50592;52.958;-7.470;2022-09-13T08:57:07;100284.84;;;12.50;100.00
64253;BME280;50592;52.958;-7.470;2022-09-13T09:05:17;100279.94;;;12.64;100.00
64253;BME280;50592;52.958;-7.470;2022-09-13T09:13:00;100272.97;;;12.71;100.00
64253;BME280;50592;52.958;-7.470;2022-09-13T09:15:30;100277.63;;;12.77;100.00
64253;BME280;50592;52.958;-7.470;2022-09-13T09:18:09;100281.47;;;12.92;100.00
64253;BME280;50592;52.958;-7.470;2022-09-13T09:20:44;100279.00;;;12.98;100.00
64253;BME280;50592;52.958;-7.470;2022-09-13T09:23:22;100277.34;;;13.14;100.00
64253;BME280;50592;52.958;-7.470;2022-09-13T09:25:51;100281.00;;;13.21;100.00
64253;BME280;50592;52.958;-7.470;2022-09-13T09:28:20;100284.50;;;13.22;100.00
64253;BME280;50592;52.958;-7.470;2022-09-13T09:31:09;100288.63;;;13.24;100.00
64253;BME280;50592;52.958;-7.470;2022-09-13T09:36:38;100289.97;;;13.37;99.00
64253;BME280;50592;52.958;-7.470;2022-09-13T09:39:09;100292.63;;;13.45;100.00
64253;BME280;50592;52.958;-7.470;2022-09-13T09:41:36;100298.72;;;13.46;99.14
64253;BME280;50592;52.958;-7.470;2022-09-13T09:46:34;100302.06;;;13.39;97.37
64253;BME280;50592;52.958;-7.470;2022-09-13T09:49:26;100290.97;;;13.52;98.49
64253;BME280;50592;52.958;-7.470;2022-09-13T09:52:20;100284.00;;;13.60;98.27
64253;BME280;50592;52.958;-7.470;2022-09-13T09:54:49;100297.75;;;13.63;98.07
64253;BME280;50592;52.958;-7.470;2022-09-13T09:57:15;100300.06;;;13.67;97.57
64253;BME280;50592;52.958;-7.470;2022-09-13T09:59:45;100302.22;;;13.71;97.70
64253;BME280;50592;52.958;-7.470;2022-09-13T10:02:19;100303.22;;;13.79;97.26
64253;BME280;50592;52.958;-7.470;2022-09-13T10:04:55;100293.72;;;13.84;96.13
64253;BME280;50592;52.958;-7.470;2022-09-13T10:07:32;100294.56;;;13.93;96.06
64253;BME280;50592;52.958;-7.470;2022-09-13T10:10:07;100284.22;;;13.98;95.03
64253;BME280;50592;52.958;-7.470;2022-09-13T10:12:49;100296.00;;;14.12;95.76
64253;BME280;50592;52.958;-7.470;2022-09-13T10:15:22;100295.13;;;14.20;95.02
64253;BME280;50592;52.958;-7.470;2022-09-13T10:20:31;100297.22;;;13.93;93.87
64253;BME280;50592;52.958;-7.470;2022-09-13T10:25:42;100298.03;;;13.94;94.66
64253;BME280;50592;52.958;-7.470;2022-09-13T10:28:15;100306.31;;;14.07;94.40
64253;BME280;50592;52.958;-7.470;2022-09-13T10:30:51;100298.34;;;14.07;94.45
64253;BME280;50592;52.958;-7.470;2022-09-13T10:33:28;100301.00;;;13.99;93.35
64253;BME280;50592;52.958;-7.470;2022-09-13T10:35:58;100298.66;;;14.12;94.85
64253;BME280;50592;52.958;-7.470;2022-09-13T10:38:29;100302.78;;;14.15;94.46
64253;BME280;50592;52.958;-7.470;2022-09-13T10:40:57;100296.16;;;14.11;94.07
64253;BME280;50592;52.958;-7.470;2022-09-13T10:43:26;100304.16;;;14.02;93.46
64253;BME280;50592;52.958;-7.470;2022-09-13T10:45:53;100307.81;;;14.01;93.91
64253;BME280;50592;52.958;-7.470;2022-09-13T10:48:20;100307.00;;;14.01;93.21
64253;BME280;50592;52.958;-7.470;2022-09-13T10:51:03;100302.31;;;14.03;93.09
64253;BME280;50592;52.958;-7.470;2022-09-13T10:53:35;100305.31;;;14.00;93.42
64253;BME280;50592;52.958;-7.470;2022-09-13T10:56:02;100314.47;;;13.97;92.76
64253;BME280;50592;52.958;-7.470;2022-09-13T10:58:29;100317.78;;;14.08;93.60
64253;BME280;50592;52.958;-7.470;2022-09-13T11:03:56;100296.59;;;14.31;92.81
64253;BME280;50592;52.958;-7.470;2022-09-13T11:14:49;100282.25;;;14.72;90.86
64253;BME280;50592;52.958;-7.470;2022-09-13T11:28:40;100282.94;;;14.66;91.30
64253;BME280;50592;52.958;-7.470;2022-09-13T11:31:37;100284.34;;;14.54;90.77
64253;BME280;50592;52.958;-7.470;2022-09-13T11:34:37;100273.53;;;14.55;91.58
64253;BME280;50592;52.958;-7.470;2022-09-13T11:46:02;100261.13;;;14.71;87.04
64253;BME280;50592;52.958;-7.470;2022-09-13T11:57:43;100258.75;;;14.52;88.68
64253;BME280;50592;52.958;-7.470;2022-09-13T12:08:54;100252.72;;;14.59;88.33
64253;BME280;50592;52.958;-7.470;2022-09-13T12:11:39;100240.25;;;14.59;87.56
64253;BME280;50592;52.958;-7.470;2022-09-13T12:14:28;100253.88;;;14.64;86.91
64253;BME280;50592;52.958;-7.470;2022-09-13T12:16:58;100249.47;;;14.80;87.71
64253;BME280;50592;52.958;-7.470;2022-09-13T12:19:42;100246.34;;;15.00;87.46
64253;BME280;50592;52.958;-7.470;2022-09-13T12:22:14;100256.03;;;15.31;87.80
64253;BME280;50592;52.958;-7.470;2022-09-13T12:24:45;100251.56;;;15.47;87.02
64253;BME280;50592;52.958;-7.470;2022-09-13T12:27:30;100257.00;;;15.54;85.75
64253;BME280;50592;52.958;-7.470;2022-09-13T12:32:43;100248.09;;;15.46;84.29
64253;BME280;50592;52.958;-7.470;2022-09-13T12:35:22;100246.47;;;15.60;85.12
64253;BME280;50592;52.958;-7.470;2022-09-13T12:41:07;100235.16;;;15.88;83.73
64253;BME280;50592;52.958;-7.470;2022-09-13T12:43:46;100231.03;;;16.01;83.53
64253;BME280;50592;52.958;-7.470;2022-09-13T12:49:19;100234.59;;;15.93;83.42
64253;BME280;50592;52.958;-7.470;2022-09-13T13:00:41;100238.00;;;16.17;83.23
64253;BME280;50592;52.958;-7.470;2022-09-13T13:03:17;100236.81;;;16.05;81.25
64253;BME280;50592;52.958;-7.470;2022-09-13T13:06:04;100238.47;;;16.06;81.49
64253;BME280;50592;52.958;-7.470;2022-09-13T13:08:49;100235.16;;;16.19;82.40
64253;BME280;50592;52.958;-7.470;2022-09-13T13:11:30;100234.88;;;16.14;80.91
64253;BME280;50592;52.958;-7.470;2022-09-13T13:26:10;100222.69;;;16.26;80.67
64253;BME280;50592;52.958;-7.470;2022-09-13T13:36:41;100203.53;;;16.16;80.79
64253;BME280;50592;52.958;-7.470;2022-09-13T13:57:33;100180.03;;;16.26;79.91
64253;BME280;50592;52.958;-7.470;2022-09-13T14:19:48;100186.81;;;15.92;80.64
64253;BME280;50592;52.958;-7.470;2022-09-13T14:22:17;100181.28;;;15.93;80.54
64253;BME280;50592;52.958;-7.470;2022-09-13T14:24:51;100186.44;;;16.10;80.07
64253;BME280;50592;52.958;-7.470;2022-09-13T14:27:20;100184.94;;;16.22;79.13
64253;BME280;50592;52.958;-7.470;2022-09-13T14:29:49;100182.22;;;16.37;78.75
64253;BME280;50592;52.958;-7.470;2022-09-13T14:32:22;100175.63;;;16.55;78.71
64253;BME280;50592;52.958;-7.470;2022-09-13T14:35:04;100172.88;;;16.70;78.08
64253;BME280;50592;52.958;-7.470;2022-09-13T14:37:35;100161.31;;;16.85;77.58
64253;BME280;50592;52.958;-7.470;2022-09-13T14:40:17;100159.44;;;16.85;75.95
64253;BME280;50592;52.958;-7.470;2022-09-13T14:42:45;100161.13;;;16.65;75.62
64253;BME280;50592;52.958;-7.470;2022-09-13T14:45:19;100158.16;;;16.53;75.26
64253;BME280;50592;52.958;-7.470;2022-09-13T14:47:52;100154.53;;;16.60;76.10
64253;BME280;50592;52.958;-7.470;2022-09-13T14:50:24;100149.44;;;16.66;75.71
64253;BME280;50592;52.958;-7.470;2022-09-13T14:52:56;100148.75;;;16.57;75.20
64253;BME280;50592;52.958;-7.470;2022-09-13T14:55:29;100140.06;;;16.48;75.44
64253;BME280;50592;52.958;-7.470;2022-09-13T14:57:59;100142.16;;;16.31;75.67
64253;BME280;50592;52.958;-7.470;2022-09-13T15:00:31;100149.69;;;16.27;76.24
64253;BME280;50592;52.958;-7.470;2022-09-13T15:03:01;100146.53;;;16.39;77.17
64253;BME280;50592;52.958;-7.470;2022-09-13T15:05:31;100150.53;;;16.49;77.41
64253;BME280;50592;52.958;-7.470;2022-09-13T15:07:58;100154.28;;;16.55;76.89
64253;BME280;50592;52.958;-7.470;2022-09-13T15:10:27;100155.88;;;16.49;76.51
64253;BME280;50592;52.958;-7.470;2022-09-13T15:13:14;100148.75;;;16.57;77.16
64253;BME280;50592;52.958;-7.470;2022-09-13T15:15:41;100145.44;;;16.55;76.48
64253;BME280;50592;52.958;-7.470;2022-09-13T15:20:59;100141.06;;;16.47;76.88
64253;BME280;50592;52.958;-7.470;2022-09-13T15:25:56;100129.31;;;16.63;77.96
64253;BME280;50592;52.958;-7.470;2022-09-13T15:28:26;100132.59;;;16.65;77.81
64253;BME280;50592;52.958;-7.470;2022-09-13T15:30:53;100121.47;;;16.61;77.09
64253;BME280;50592;52.958;-7.470;2022-09-13T15:33:28;100131.28;;;16.54;76.42
64253;BME280;50592;52.958;-7.470;2022-09-13T15:38:59;100129.44;;;16.55;76.67
64253;BME280;50592;52.958;-7.470;2022-09-13T15:41:36;100125.75;;;16.56;75.76
64253;BME280;50592;52.958;-7.470;2022-09-13T15:44:05;100116.25;;;16.46;77.04
64253;BME280;50592;52.958;-7.470;2022-09-13T15:46:35;100118.06;;;16.46;77.41
64253;BME280;50592;52.958;-7.470;2022-09-13T15:49:03;100114.84;;;16.51;78.39
64253;BME280;50592;52.958;-7.470;2022-09-13T15:51:32;100121.47;;;16.61;78.40
64253;BME280;50592;52.958;-7.470;2022-09-13T15:54:00;100114.75;;;16.66;78.17
64253;BME280;50592;52.958;-7.470;2022-09-13T15:56:30;100111.13;;;16.73;77.76
64253;BME280;50592;52.958;-7.470;2022-09-13T15:58:57;100115.44;;;16.74;77.96
64253;BME280;50592;52.958;-7.470;2022-09-13T16:01:23;100110.09;;;16.74;77.43
64253;BME280;50592;52.958;-7.470;2022-09-13T16:03:49;100111.34;;;16.79;77.29
64253;BME280;50592;52.958;-7.470;2022-09-13T16:06:15;100106.22;;;16.77;76.78
64253;BME280;50592;52.958;-7.470;2022-09-13T16:08:40;100103.13;;;16.73;76.19
64253;BME280;50592;52.958;-7.470;2022-09-13T16:11:06;100100.41;;;16.67;76.34
64253;BME280;50592;52.958;-7.470;2022-09-13T16:13:33;100106.38;;;16.69;76.12
64253;BME280;50592;52.958;-7.470;2022-09-13T16:15:59;100101.84;;;16.69;76.21
64253;BME280;50592;52.958;-7.470;2022-09-13T16:18:25;100104.97;;;16.73;76.57
64253;BME280;50592;52.958;-7.470;2022-09-13T16:20:51;100094.91;;;16.75;77.66
64253;BME280;50592;52.958;-7.470;2022-09-13T16:23:17;100087.53;;;16.77;77.97